Time;durP1;ratioP1;P1;durP2;ratioP2;P2;SDS_P1;SDS_P2;PMS_P1;PMS_P2;Temp;Humidity;BMP_temperature;BMP_pressure;BME280_temperature;BME280_humidity;BME280_pressure;Samples;Min_cycle;Max_cycle;Signal;HPM_P1;HPM_P2
2022/01/11 00:02:18;;;;;;;73.22;18.58;;;;;;;;;;4956556;28;107877;-73
2022/01/11 00:04:44;;;;;;;72.63;18.20;;;;;;;;;;4968962;28;106534;-73
2022/01/11 00:07:14;;;;;;;82.25;17.73;;;;;;;;;;4966983;28;106166;-71
2022/01/11 00:09:42;;;;;;;79.72;17.73;;;;;;;;;;4965585;28;106453;-72
2022/01/11 00:12:10;;;;;;;75.25;18.85;;;;;;;;;;4963451;28;107363;-72
2022/01/11 00:14:37;;;;;;;91.40;19.27;;;;;;;;;;4961626;28;105536;-71
2022/01/11 00:17:03;;;;;;;88.25;19.25;;;;;;;;;;4962398;28;106250;-72
2022/01/11 00:19:30;;;;;;;100.80;20.60;;;;;;;;;;4964278;28;106501;-71
2022/01/11 00:21:58;;;;;;;115.80;17.92;;;;;;;;;;4968895;28;107557;-73
2022/01/11 00:24:28;;;;;;;81.43;19.33;;;;;;;;;;4963886;28;107478;-71
2022/01/11 00:26:59;;;;;;;91.22;18.40;;;;;;;;;;4970946;28;107325;-73
2022/01/11 00:29:26;;;;;;;150.05;22.92;;;;;;;;;;4965391;28;108807;-72
2022/01/11 00:31:57;;;;;;;103.03;20.58;;;;;;;;;;4946839;28;109544;-72
2022/01/11 00:34:25;;;;;;;;;;;;;;;;;;4963887;28;106397;-72
2022/01/11 00:36:52;;;;;;;105.63;20.08;;;;;;;;;;4966224;28;135179;-71
2022/01/11 00:39:18;;;;;;;93.90;19.90;;;;;;;;;;4963565;28;107235;-72
2022/01/11 00:41:45;;;;;;;105.55;20.98;;;;;;;;;;4966520;28;106745;-71
2022/01/11 00:44:12;;;;;;;96.05;19.88;;;;;;;;;;4961366;28;108381;-72
2022/01/11 00:46:40;;;;;;;109.60;22.95;;;;;;;;;;4965531;28;109540;-71
2022/01/11 00:49:07;;;;;;;81.90;20.65;;;;;;;;;;4971357;28;106034;-71
2022/01/11 00:51:33;;;;;;;130.40;24.25;;;;;;;;;;4968399;28;107528;-71
2022/01/11 00:54:00;;;;;;;86.20;20.73;;;;;;;;;;4964655;28;106223;-71
2022/01/11 00:56:26;;;;;;;85.40;20.42;;;;;;;;;;4949663;28;108586;-72
2022/01/11 00:58:53;;;;;;;81.97;21.15;;;;;;;;;;4965245;28;107734;-72
2022/01/11 01:01:19;;;;;;;73.13;20.77;;;;;;;;;;4966552;28;106826;-71
2022/01/11 01:03:46;;;;;;;69.80;20.27;;;;;;;;;;4962575;28;106172;-71
2022/01/11 01:06:12;;;;;;;73.05;21.05;;;;;;;;;;4965167;28;110315;-71
2022/01/11 01:08:40;;;;;;;68.85;20.13;;;;;;;;;;4955820;28;106544;-73
2022/01/11 01:11:09;;;;;;;67.22;21.13;;;;;;;;;;4967173;28;108213;-71
2022/01/11 01:13:42;;;;;;;75.03;20.33;;;;;;;;;;4966125;28;107692;-71
2022/01/11 01:16:10;;;;;;;97.15;20.13;;;;;;;;;;4966568;28;108628;-71
2022/01/11 01:19:00;;;;;;;77.75;19.85;;;;;;;;;;4951134;28;109908;-72
2022/01/11 01:21:26;;;;;;;76.20;21.42;;;;;;;;;;4964574;28;106302;-71
2022/01/11 01:23:52;;;;;;;97.00;22.58;;;;;;;;;;4966548;28;107856;-71
2022/01/11 01:26:19;;;;;;;82.10;20.95;;;;;;;;;;4965429;28;109066;-71
2022/01/11 01:28:47;;;;;;;84.75;20.75;;;;;;;;;;4968138;28;106140;-72
2022/01/11 01:31:14;;;;;;;82.38;23.15;;;;;;;;;;4966994;28;106278;-71
2022/01/11 01:33:40;;;;;;;74.68;21.77;;;;;;;;;;4959504;28;106535;-72
2022/01/11 01:36:11;;;;;;;90.40;21.55;;;;;;;;;;4958487;28;107519;-70
2022/01/11 01:38:38;;;;;;;87.43;21.58;;;;;;;;;;4965070;28;109291;-71
2022/01/11 01:41:13;;;;;;;94.70;21.67;;;;;;;;;;4963208;28;106121;-72
2022/01/11 01:43:40;;;;;;;118.90;22.85;;;;;;;;;;4965133;28;107182;-72
2022/01/11 01:46:06;;;;;;;107.78;24.08;;;;;;;;;;4967795;28;108279;-72
2022/01/11 01:48:35;;;;;;;98.70;22.77;;;;;;;;;;4963730;28;105977;-72
2022/01/11 01:51:03;;;;;;;87.20;23.27;;;;;;;;;;4965387;28;107145;-71
2022/01/11 01:53:29;;;;;;;81.35;23.02;;;;;;;;;;4971707;28;109115;-71
2022/01/11 01:55:56;;;;;;;75.20;21.42;;;;;;;;;;4970169;28;106521;-71
2022/01/11 01:58:23;;;;;;;92.32;22.08;;;;;;;;;;4962455;28;109679;-72
2022/01/11 02:00:55;;;;;;;65.25;19.65;;;;;;;;;;4967986;28;107087;-71
2022/01/11 02:03:26;;;;;;;60.40;20.33;;;;;;;;;;4969611;28;107093;-71
2022/01/11 02:05:53;;;;;;;58.75;19.48;;;;;;;;;;4934409;28;109004;-71
2022/01/11 02:08:20;;;;;;;73.53;20.73;;;;;;;;;;4905472;28;106377;-72
2022/01/11 02:10:47;;;;;;;69.45;19.85;;;;;;;;;;4968735;23;108087;-63
2022/01/11 02:13:13;;;;;;;75.82;19.30;;;;;;;;;;4966447;28;108993;-64
2022/01/11 02:15:39;;;;;;;79.97;22.05;;;;;;;;;;4975065;28;106170;-64
2022/01/11 02:18:07;;;;;;;65.60;20.50;;;;;;;;;;4967472;28;108713;-63
2022/01/11 02:20:35;;;;;;;65.18;20.23;;;;;;;;;;4960486;28;106462;-63
2022/01/11 02:23:01;;;;;;;58.50;18.88;;;;;;;;;;4967088;28;108576;-63
2022/01/11 02:25:28;;;;;;;73.13;20.40;;;;;;;;;;4968149;28;106584;-64
2022/01/11 02:27:55;;;;;;;66.13;20.05;;;;;;;;;;4967934;28;106543;-64
2022/01/11 02:30:21;;;;;;;75.50;21.42;;;;;;;;;;4968995;28;108068;-64
2022/01/11 02:32:49;;;;;;;67.47;20.00;;;;;;;;;;4965560;28;109795;-63
2022/01/11 02:35:16;;;;;;;72.55;20.02;;;;;;;;;;4969301;28;106343;-63
2022/01/11 02:37:43;;;;;;;82.70;19.65;;;;;;;;;;4970147;28;109462;-64
2022/01/11 02:40:12;;;;;;;;;;;;;;;;;;4968461;28;106249;-63
2022/01/11 02:42:39;;;;;;;64.40;18.98;;;;;;;;;;4966567;28;132154;-64
2022/01/11 02:45:17;;;;;;;57.35;17.83;;;;;;;;;;4968714;28;108755;-63
2022/01/11 02:47:45;;;;;;;61.95;18.98;;;;;;;;;;4979703;28;105710;-63
2022/01/11 02:50:13;;;;;;;60.70;18.48;;;;;;;;;;4968852;28;107845;-63
2022/01/11 02:52:44;;;;;;;55.05;18.48;;;;;;;;;;4960807;28;108859;-63
2022/01/11 02:55:12;;;;;;;59.80;18.30;;;;;;;;;;4969224;28;107118;-64
2022/01/11 02:57:39;;;;;;;63.05;18.77;;;;;;;;;;4968151;28;110080;-64
2022/01/11 03:00:16;;;;;;;56.00;17.85;;;;;;;;;;4969233;28;108278;-63
2022/01/11 03:02:43;;;;;;;48.13;18.20;;;;;;;;;;4967730;28;108109;-64
2022/01/11 03:05:12;;;;;;;61.17;18.70;;;;;;;;;;4956224;28;108443;-66
2022/01/11 03:07:40;;;;;;;55.92;18.63;;;;;;;;;;4964955;28;106047;-64
2022/01/11 03:10:19;;;;;;;59.72;18.25;;;;;;;;;;4953334;28;108061;-65
2022/01/11 03:12:49;;;;;;;58.40;17.92;;;;;;;;;;4967919;28;108816;-63
2022/01/11 03:15:16;;;;;;;64.55;19.25;;;;;;;;;;4969235;28;106131;-63
2022/01/11 03:17:46;;;;;;;62.47;18.77;;;;;;;;;;4963569;28;108227;-63
2022/01/11 03:20:12;;;;;;;62.55;18.63;;;;;;;;;;4960724;28;108666;-63
2022/01/11 03:22:40;;;;;;;56.38;17.92;;;;;;;;;;4971427;28;106010;-63
2022/01/11 03:25:09;;;;;;;62.58;18.95;;;;;;;;;;4957214;28;109279;-64
2022/01/11 03:27:38;;;;;;;65.03;18.80;;;;;;;;;;4955342;28;106803;-65
2022/01/11 03:30:06;;;;;;;62.78;18.75;;;;;;;;;;4962458;28;108674;-63
2022/01/11 03:32:34;;;;;;;51.83;18.13;;;;;;;;;;4966843;28;108720;-63
2022/01/11 03:35:10;;;;;;;63.85;18.42;;;;;;;;;;4966311;28;106314;-63
2022/01/11 03:37:37;;;;;;;68.97;19.88;;;;;;;;;;4968575;28;107664;-64
2022/01/11 03:40:05;;;;;;;74.75;20.42;;;;;;;;;;4956070;28;109109;-63
2022/01/11 03:42:32;;;;;;;64.90;19.75;;;;;;;;;;4967606;28;106182;-63
2022/01/11 03:45:00;;;;;;;60.55;20.90;;;;;;;;;;4968906;28;109207;-63
2022/01/11 03:47:32;;;;;;;58.58;18.25;;;;;;;;;;4961573;28;106492;-63
2022/01/11 03:49:59;;;;;;;59.40;19.70;;;;;;;;;;4953340;28;107794;-63
2022/01/11 03:52:27;;;;;;;57.72;19.20;;;;;;;;;;4963626;28;108850;-65
2022/01/11 03:57:32;;;;;;;66.72;18.58;;;;;;;;;;4967283;28;108185;-64
2022/01/11 03:59:59;;;;;;;67.55;19.88;;;;;;;;;;4954539;28;110508;-65
2022/01/11 04:02:26;;;;;;;57.33;19.05;;;;;;;;;;4964286;28;105881;-65
2022/01/11 04:04:53;;;;;;;76.60;20.42;;;;;;;;;;4962975;28;107913;-65
2022/01/11 04:07:21;;;;;;;80.30;20.38;;;;;;;;;;4966843;28;106408;-65
2022/01/11 04:09:48;;;;;;;73.97;20.77;;;;;;;;;;4967372;28;106782;-65
2022/01/11 04:12:14;;;;;;;76.90;20.10;;;;;;;;;;4963009;28;108445;-66
2022/01/11 04:14:41;;;;;;;71.85;20.02;;;;;;;;;;4968399;28;107371;-64
2022/01/11 04:17:09;;;;;;;66.43;20.05;;;;;;;;;;4966745;28;106258;-63
2022/01/11 04:19:35;;;;;;;67.30;20.27;;;;;;;;;;4983921;28;109105;-63
2022/01/11 04:22:02;;;;;;;66.32;20.02;;;;;;;;;;4961933;28;107147;-63
2022/01/11 04:24:29;;;;;;;69.60;19.98;;;;;;;;;;4966803;28;108686;-63
2022/01/11 04:26:55;;;;;;;73.65;19.98;;;;;;;;;;4969829;28;108783;-63
2022/01/11 04:29:22;;;;;;;73.78;21.33;;;;;;;;;;4966280;28;108595;-63
2022/01/11 04:31:48;;;;;;;75.30;19.23;;;;;;;;;;4966686;28;106306;-63
2022/01/11 04:34:18;;;;;;;78.88;22.05;;;;;;;;;;4967483;28;106583;-63
2022/01/11 04:36:45;;;;;;;72.60;20.70;;;;;;;;;;4956803;28;108099;-65
2022/01/11 04:39:12;;;;;;;70.40;19.83;;;;;;;;;;4965274;28;109093;-63
2022/01/11 04:41:39;;;;;;;77.78;20.70;;;;;;;;;;4956544;28;105968;-63
2022/01/11 04:44:06;;;;;;;79.75;22.00;;;;;;;;;;4953865;28;110032;-64
2022/01/11 04:46:33;;;;;;;76.57;21.15;;;;;;;;;;4958292;28;107985;-64
2022/01/11 04:49:00;;;;;;;73.20;20.50;;;;;;;;;;4957985;28;106588;-64
2022/01/11 04:51:27;;;;;;;79.70;22.05;;;;;;;;;;4966240;28;108251;-64
2022/01/11 04:53:54;;;;;;;70.85;20.90;;;;;;;;;;4965691;28;105704;-64
2022/01/11 04:56:22;;;;;;;75.50;21.23;;;;;;;;;;4967765;28;108154;-64
2022/01/11 04:58:49;;;;;;;76.53;20.92;;;;;;;;;;4964201;28;108726;-64
2022/01/11 05:01:17;;;;;;;76.32;20.90;;;;;;;;;;4951058;28;106570;-64
2022/01/11 05:03:45;;;;;;;75.00;20.48;;;;;;;;;;4966465;28;106328;-65
2022/01/11 05:06:12;;;;;;;74.25;21.88;;;;;;;;;;4962761;28;109141;-63
2022/01/11 05:08:40;;;;;;;78.07;21.48;;;;;;;;;;4969075;28;106177;-64
2022/01/11 05:11:08;;;;;;;88.43;22.05;;;;;;;;;;4964081;28;108274;-64
2022/01/11 05:13:35;;;;;;;74.20;19.77;;;;;;;;;;4966800;28;106063;-63
2022/01/11 05:16:09;;;;;;;77.13;21.27;;;;;;;;;;4957680;28;108209;-66
2022/01/11 05:18:36;;;;;;;74.35;19.95;;;;;;;;;;4965415;28;108945;-65
2022/01/11 05:21:04;;;;;;;63.90;20.48;;;;;;;;;;4968100;28;106609;-65
2022/01/11 05:23:30;;;;;;;84.88;22.10;;;;;;;;;;4969866;28;106705;-65
2022/01/11 05:25:57;;;;;;;84.60;21.05;;;;;;;;;;4961611;28;109138;-65
2022/01/11 05:28:24;;;;;;;80.50;19.98;;;;;;;;;;4961906;28;107425;-66
2022/01/11 05:30:51;;;;;;;77.68;21.33;;;;;;;;;;4962296;28;109118;-65
2022/01/11 05:33:18;;;;;;;78.07;20.70;;;;;;;;;;4965929;28;106521;-64
2022/01/11 05:35:46;;;;;;;80.75;21.17;;;;;;;;;;4959645;28;108189;-64
2022/01/11 05:38:12;;;;;;;75.15;21.27;;;;;;;;;;4968774;28;107404;-64
2022/01/11 05:40:39;;;;;;;78.93;20.77;;;;;;;;;;4970086;28;106603;-64
2022/01/11 05:43:09;;;;;;;81.95;21.13;;;;;;;;;;4969363;28;108108;-64
2022/01/11 05:45:36;;;;;;;86.47;20.73;;;;;;;;;;4969735;28;108821;-63
2022/01/11 05:48:03;;;;;;;81.95;21.50;;;;;;;;;;4970000;28;106145;-63
2022/01/11 05:50:34;;;;;;;77.30;20.77;;;;;;;;;;4965447;28;107094;-64
2022/01/11 05:53:01;;;;;;;79.88;22.55;;;;;;;;;;4972819;28;109592;-64
2022/01/11 05:55:28;;;;;;;79.07;22.10;;;;;;;;;;4959189;28;107527;-64
2022/01/11 05:57:55;;;;;;;77.72;21.05;;;;;;;;;;4959949;28;108765;-64
2022/01/11 06:00:21;;;;;;;83.53;21.52;;;;;;;;;;4969437;28;105956;-64
2022/01/11 06:02:52;;;;;;;70.78;20.95;;;;;;;;;;4964677;28;107898;-64
2022/01/11 06:05:28;;;;;;;78.38;21.20;;;;;;;;;;4966276;28;108778;-64
2022/01/11 06:07:55;;;;;;;75.38;21.35;;;;;;;;;;4970793;28;106039;-64
2022/01/11 06:10:22;;;;;;;68.25;19.92;;;;;;;;;;4968259;28;108038;-64
2022/01/11 06:12:49;;;;;;;77.35;20.50;;;;;;;;;;4965028;28;109451;-64
2022/01/11 06:15:15;;;;;;;74.50;20.48;;;;;;;;;;4974208;28;106251;-63
2022/01/11 06:17:42;;;;;;;71.03;20.25;;;;;;;;;;4966012;28;106200;-63
2022/01/11 06:20:10;;;;;;;62.92;18.10;;;;;;;;;;4966522;28;106466;-64
2022/01/11 06:22:37;;;;;;;67.88;21.17;;;;;;;;;;4965725;28;108032;-68
2022/01/11 06:25:05;;;;;;;75.97;21.77;;;;;;;;;;4969055;28;107527;-63
2022/01/11 06:27:32;;;;;;;70.82;20.88;;;;;;;;;;4971535;28;106215;-64
2022/01/11 06:30:00;;;;;;;67.93;20.15;;;;;;;;;;4967756;28;108661;-65
2022/01/11 06:32:28;;;;;;;64.15;19.63;;;;;;;;;;4956855;28;108865;-64
2022/01/11 06:34:55;;;;;;;71.07;20.67;;;;;;;;;;4962290;28;106197;-63
2022/01/11 06:37:22;;;;;;;66.68;20.75;;;;;;;;;;4968077;28;107852;-63
2022/01/11 06:39:51;;;;;;;77.32;22.08;;;;;;;;;;4954692;28;106252;-63
2022/01/11 06:42:17;;;;;;;69.60;19.67;;;;;;;;;;4955790;28;108274;-63
2022/01/11 06:44:44;;;;;;;72.10;21.05;;;;;;;;;;4968716;28;107311;-63
2022/01/11 06:47:11;;;;;;;67.63;21.67;;;;;;;;;;4968153;28;108026;-64
2022/01/11 06:49:38;;;;;;;78.70;22.70;;;;;;;;;;4967401;28;108772;-63
2022/01/11 06:52:05;;;;;;;78.47;21.23;;;;;;;;;;4966489;28;108558;-63
2022/01/11 06:54:36;;;;;;;73.55;21.33;;;;;;;;;;4966181;28;108061;-63
2022/01/11 06:57:03;;;;;;;75.75;22.13;;;;;;;;;;4980376;28;108504;-63
2022/01/11 06:59:29;;;;;;;69.88;21.30;;;;;;;;;;4978771;28;108587;-63
2022/01/11 07:02:01;;;;;;;66.70;22.20;;;;;;;;;;4966926;28;108168;-63
2022/01/11 07:04:37;;;;;;;75.70;21.73;;;;;;;;;;4959027;28;109487;-63
2022/01/11 07:07:05;;;;;;;73.82;23.05;;;;;;;;;;4961246;28;107000;-63
2022/01/11 07:09:32;;;;;;;62.08;20.58;;;;;;;;;;4964252;28;106699;-63
2022/01/11 07:11:59;;;;;;;63.58;20.63;;;;;;;;;;4962277;28;108498;-64
2022/01/11 07:14:25;;;;;;;72.07;23.80;;;;;;;;;;4968117;28;107382;-63
2022/01/11 07:16:52;;;;;;;75.38;21.05;;;;;;;;;;4967838;28;108169;-63
2022/01/11 07:19:20;;;;;;;70.53;22.27;;;;;;;;;;4953765;28;107490;-63
2022/01/11 07:21:49;;;;;;;71.22;20.77;;;;;;;;;;4957839;28;106308;-63
2022/01/11 07:24:17;;;;;;;77.03;22.65;;;;;;;;;;4966180;28;108332;-63
2022/01/11 07:26:46;;;;;;;71.35;22.10;;;;;;;;;;4962467;28;107158;-63
2022/01/11 07:29:13;;;;;;;75.32;22.50;;;;;;;;;;4963908;28;108777;-63
2022/01/11 07:31:41;;;;;;;76.70;22.58;;;;;;;;;;4950094;28;107350;-63
2022/01/11 07:34:10;;;;;;;72.05;21.63;;;;;;;;;;4961811;28;107213;-63
2022/01/11 07:36:37;;;;;;;70.75;21.83;;;;;;;;;;4948610;28;108066;-64
2022/01/11 07:39:05;;;;;;;65.85;20.77;;;;;;;;;;4963310;28;108606;-64
2022/01/11 07:41:33;;;;;;;66.18;21.10;;;;;;;;;;4972162;28;106039;-63
2022/01/11 07:44:10;;;;;;;65.10;21.13;;;;;;;;;;4963486;28;109520;-63
2022/01/11 07:46:39;;;;;;;63.20;20.55;;;;;;;;;;4954405;28;107362;-64
2022/01/11 07:49:11;;;;;;;69.25;22.17;;;;;;;;;;4963619;28;107737;-64
2022/01/11 07:51:39;;;;;;;68.57;20.65;;;;;;;;;;4966831;28;108839;-64
2022/01/11 07:54:07;;;;;;;64.00;21.05;;;;;;;;;;4981446;28;106394;-64
2022/01/11 07:56:35;;;;;;;67.30;20.63;;;;;;;;;;4967781;28;108362;-63
2022/01/11 07:59:02;;;;;;;64.07;20.15;;;;;;;;;;4965275;28;109174;-63
2022/01/11 08:01:34;;;;;;;68.53;20.10;;;;;;;;;;4965990;28;106272;-64
2022/01/11 08:04:02;;;;;;;63.17;19.67;;;;;;;;;;4958280;28;107916;-64
2022/01/11 08:06:33;;;;;;;58.25;19.30;;;;;;;;;;4961337;28;106581;-63
2022/01/11 08:09:07;;;;;;;59.25;19.00;;;;;;;;;;4965815;28;108517;-64
2022/01/11 08:11:35;;;;;;;66.35;20.73;;;;;;;;;;4967289;28;109132;-64
2022/01/11 08:14:03;;;;;;;61.70;20.25;;;;;;;;;;4968393;28;106232;-64
2022/01/11 08:16:31;;;;;;;59.20;19.15;;;;;;;;;;4966221;28;108114;-64
2022/01/11 08:18:58;;;;;;;64.07;19.60;;;;;;;;;;4967566;28;108685;-64
2022/01/11 08:21:25;;;;;;;55.53;18.63;;;;;;;;;;4966149;28;106413;-64
2022/01/11 08:23:52;;;;;;;63.90;20.00;;;;;;;;;;4966262;28;108120;-64
2022/01/11 08:26:18;;;;;;;60.70;20.13;;;;;;;;;;4969533;28;109153;-64
2022/01/11 08:28:45;;;;;;;58.88;19.63;;;;;;;;;;4966143;28;108422;-65
2022/01/11 08:31:12;;;;;;;54.95;19.70;;;;;;;;;;4961925;28;109326;-65
2022/01/11 08:33:48;;;;;;;53.38;17.38;;;;;;;;;;4964788;28;107128;-65
2022/01/11 08:36:16;;;;;;;51.50;18.48;;;;;;;;;;4963245;28;108035;-64
2022/01/11 08:38:42;;;;;;;60.35;19.42;;;;;;;;;;4961674;28;110291;-66
2022/01/11 08:41:10;;;;;;;55.90;18.40;;;;;;;;;;4967518;28;106072;-67
2022/01/11 08:43:37;;;;;;;44.65;17.98;;;;;;;;;;4964870;28;107919;-67
2022/01/11 08:46:04;;;;;;;50.67;17.75;;;;;;;;;;4962477;28;110181;-67
2022/01/11 08:48:41;;;;;;;51.67;18.20;;;;;;;;;;4962730;28;107770;-65
2022/01/11 08:51:12;;;;;;;54.30;18.02;;;;;;;;;;4963957;28;109421;-65
2022/01/11 08:53:39;;;;;;;51.70;18.58;;;;;;;;;;4960902;28;106533;-64
2022/01/11 08:56:11;;;;;;;52.85;18.33;;;;;;;;;;4956776;28;107953;-64
2022/01/11 08:58:39;;;;;;;54.58;19.35;;;;;;;;;;4956793;28;106445;-65
2022/01/11 09:01:06;;;;;;;56.83;19.73;;;;;;;;;;4958136;28;105694;-64
2022/01/11 09:03:36;;;;;;;53.83;18.90;;;;;;;;;;4966913;28;108471;-65
2022/01/11 09:06:07;;;;;;;49.78;19.10;;;;;;;;;;4962960;28;109374;-64
2022/01/11 09:08:34;;;;;;;54.33;19.33;;;;;;;;;;4957232;28;105826;-65
2022/01/11 09:11:01;;;;;;;47.55;18.08;;;;;;;;;;4983707;28;108891;-65
2022/01/11 09:13:28;;;;;;;48.30;17.10;;;;;;;;;;4964043;28;106362;-65
2022/01/11 09:15:55;;;;;;;41.75;16.45;;;;;;;;;;4956203;28;108101;-65
2022/01/11 09:18:22;;;;;;;46.15;17.05;;;;;;;;;;4965681;28;107418;-65
2022/01/11 09:20:49;;;;;;;52.65;18.30;;;;;;;;;;4959867;28;106032;-64
2022/01/11 09:23:16;;;;;;;43.97;17.05;;;;;;;;;;4952423;28;108594;-65
2022/01/11 09:25:45;;;;;;;48.25;18.05;;;;;;;;;;4957297;28;109422;-64
2022/01/11 09:28:14;;;;;;;45.30;16.17;;;;;;;;;;4956866;28;106557;-65
2022/01/11 09:30:42;;;;;;;50.67;16.40;;;;;;;;;;4959223;28;108211;-64
2022/01/11 09:33:10;;;;;;;44.45;16.48;;;;;;;;;;4966758;28;109649;-64
2022/01/11 09:35:38;;;;;;;51.53;17.60;;;;;;;;;;4958734;28;108253;-65
2022/01/11 09:38:13;;;;;;;40.83;17.00;;;;;;;;;;4955463;28;108477;-65
2022/01/11 09:40:40;;;;;;;44.55;17.00;;;;;;;;;;4958374;28;105895;-65
2022/01/11 09:43:08;;;;;;;43.95;16.20;;;;;;;;;;4964317;28;108595;-65
2022/01/11 09:45:35;;;;;;;48.28;16.55;;;;;;;;;;4965099;28;107630;-65
2022/01/11 09:48:04;;;;;;;46.95;16.20;;;;;;;;;;4954790;28;111085;-65
2022/01/11 09:50:37;;;;;;;42.05;16.30;;;;;;;;;;4960925;28;108137;-67
2022/01/11 09:53:07;;;;;;;42.67;16.80;;;;;;;;;;4964693;28;108989;-66
2022/01/11 09:55:36;;;;;;;44.90;16.25;;;;;;;;;;4957161;28;107997;-66
2022/01/11 09:58:05;;;;;;;39.83;15.77;;;;;;;;;;4974944;28;108795;-66
2022/01/11 10:00:50;;;;;;;40.20;16.20;;;;;;;;;;4960417;28;106120;-66
2022/01/11 10:03:56;;;;;;;42.45;15.52;;;;;;;;;;4959854;28;107656;-65
2022/01/11 10:06:29;;;;;;;45.63;17.13;;;;;;;;;;4959367;28;108873;-65
2022/01/11 10:09:10;;;;;;;41.72;17.77;;;;;;;;;;4960188;28;108197;-69
2022/01/11 10:11:38;;;;;;;34.92;15.00;;;;;;;;;;4968063;28;106666;-65
2022/01/11 10:14:16;;;;;;;41.80;16.00;;;;;;;;;;4960656;28;106307;-64
2022/01/11 10:16:42;;;;;;;35.63;15.00;;;;;;;;;;4965196;28;106523;-65
2022/01/11 10:19:22;;;;;;;41.65;16.02;;;;;;;;;;4959143;28;108586;-65
2022/01/11 10:21:50;;;;;;;38.50;16.17;;;;;;;;;;4958658;28;106910;-64
2022/01/11 10:24:26;;;;;;;39.88;16.00;;;;;;;;;;4957093;28;108661;-67
2022/01/11 10:26:56;;;;;;;41.45;14.52;;;;;;;;;;4978917;28;108345;-65
2022/01/11 10:29:24;;;;;;;41.42;14.63;;;;;;;;;;4958915;28;108817;-65
2022/01/11 10:31:52;;;;;;;37.83;15.35;;;;;;;;;;4965306;28;107812;-65
2022/01/11 10:34:47;;;;;;;35.05;15.60;;;;;;;;;;4959612;28;106939;-65
2022/01/11 10:37:16;;;;;;;36.20;14.27;;;;;;;;;;4961529;28;105653;-65
2022/01/11 10:39:44;;;;;;;37.30;15.07;;;;;;;;;;4965479;28;108747;-66
2022/01/11 10:42:24;;;;;;;38.35;14.07;;;;;;;;;;4965565;28;107405;-66
2022/01/11 10:45:03;;;;;;;36.97;13.82;;;;;;;;;;4966563;28;108360;-65
2022/01/11 10:47:34;;;;;;;34.50;14.43;;;;;;;;;;4965113;28;108621;-65
2022/01/11 10:50:34;;;;;;;34.85;14.38;;;;;;;;;;4963846;28;106644;-64
2022/01/11 10:53:04;;;;;;;37.60;14.77;;;;;;;;;;4942636;28;110051;-64
2022/01/11 10:55:34;;;;;;;32.53;14.10;;;;;;;;;;4962762;28;108704;-67
2022/01/11 10:58:22;;;;;;;36.88;14.93;;;;;;;;;;4962659;28;106965;-64
2022/01/11 11:00:50;;;;;;;33.50;13.93;;;;;;;;;;4959351;28;108434;-68
2022/01/11 11:03:24;;;;;;;35.85;14.93;;;;;;;;;;4963539;28;107152;-66
2022/01/11 11:06:05;;;;;;;31.33;14.27;;;;;;;;;;4966237;28;108091;-66
2022/01/11 11:08:35;;;;;;;32.05;12.98;;;;;;;;;;4967386;28;106517;-64
2022/01/11 11:11:09;;;;;;;34.40;13.82;;;;;;;;;;4968346;28;106220;-65
2022/01/11 11:13:42;;;;;;;29.83;13.10;;;;;;;;;;4967723;28;108449;-65
2022/01/11 11:16:10;;;;;;;36.70;13.43;;;;;;;;;;4976673;28;109403;-64
2022/01/11 11:18:39;;;;;;;32.95;12.88;;;;;;;;;;4967061;28;108112;-65
2022/01/11 11:21:12;;;;;;;32.63;14.50;;;;;;;;;;4964337;28;108198;-65
2022/01/11 11:23:38;;;;;;;31.63;12.88;;;;;;;;;;4964039;28;107429;-65
2022/01/11 11:26:05;;;;;;;32.53;14.30;;;;;;;;;;4971709;28;106126;-64
2022/01/11 11:28:31;;;;;;;30.85;13.55;;;;;;;;;;4962398;28;107527;-64
2022/01/11 11:30:58;;;;;;;32.67;13.85;;;;;;;;;;4968131;28;107665;-65
2022/01/11 11:33:25;;;;;;;29.33;12.65;;;;;;;;;;4962562;28;107379;-67
2022/01/11 11:35:51;;;;;;;31.40;13.82;;;;;;;;;;4965612;28;106735;-65
2022/01/11 11:38:21;;;;;;;31.15;12.82;;;;;;;;;;4968472;28;106057;-64
2022/01/11 11:40:52;;;;;;;28.83;13.48;;;;;;;;;;4965109;28;108057;-66
2022/01/11 11:43:19;;;;;;;32.78;13.23;;;;;;;;;;4961779;28;106551;-67
2022/01/11 11:45:47;;;;;;;29.53;12.20;;;;;;;;;;4959232;28;106297;-64
2022/01/11 11:48:20;;;;;;;30.80;13.70;;;;;;;;;;4967861;28;106585;-65
2022/01/11 11:50:48;;;;;;;31.52;13.20;;;;;;;;;;4969822;28;107099;-65
2022/01/11 11:53:26;;;;;;;30.58;12.95;;;;;;;;;;4968301;28;108273;-64
2022/01/11 11:56:11;;;;;;;31.90;12.98;;;;;;;;;;4968163;28;106306;-65
2022/01/11 11:58:42;;;;;;;30.70;12.35;;;;;;;;;;4968114;28;105930;-65
2022/01/11 12:01:27;;;;;;;30.85;12.85;;;;;;;;;;4966706;28;106838;-65
2022/01/11 12:03:54;;;;;;;27.42;11.43;;;;;;;;;;4963734;28;107248;-64
2022/01/11 12:06:27;;;;;;;33.88;13.02;;;;;;;;;;4966504;28;106446;-65
2022/01/11 12:09:00;;;;;;;32.03;11.88;;;;;;;;;;4971467;28;106407;-67
2022/01/11 12:11:33;;;;;;;30.00;13.45;;;;;;;;;;4967635;28;107863;-65
2022/01/11 12:13:59;;;;;;;27.65;12.35;;;;;;;;;;4964997;28;107075;-65
2022/01/11 12:16:26;;;;;;;25.75;12.07;;;;;;;;;;4965175;28;110096;-65
2022/01/11 12:18:53;;;;;;;30.48;12.55;;;;;;;;;;4968151;28;106186;-66
2022/01/11 12:21:21;;;;;;;25.75;12.05;;;;;;;;;;4966335;28;106696;-65
2022/01/11 12:23:47;;;;;;;25.65;11.52;;;;;;;;;;4958922;28;107314;-65
2022/01/11 12:26:16;;;;;;;27.80;11.98;;;;;;;;;;4967946;28;106638;-66
2022/01/11 12:28:43;;;;;;;30.27;11.87;;;;;;;;;;4967044;28;106983;-65
2022/01/11 12:31:36;;;;;;;29.45;10.88;;;;;;;;;;4970558;28;106214;-65
2022/01/11 12:34:04;;;;;;;24.77;11.05;;;;;;;;;;4965846;28;106893;-65
2022/01/11 12:36:48;;;;;;;23.60;11.57;;;;;;;;;;4957332;28;107333;-65
2022/01/11 12:39:15;;;;;;;31.48;12.52;;;;;;;;;;4955712;28;106033;-65
2022/01/11 12:41:41;;;;;;;25.98;11.68;;;;;;;;;;4968299;28;106785;-65
2022/01/11 12:46:59;;;;;;;26.70;11.05;;;;;;;;;;4967910;28;107219;-65
2022/01/11 12:49:27;;;;;;;27.48;11.50;;;;;;;;;;4968150;28;106298;-66
2022/01/11 12:52:20;;;;;;;27.25;11.00;;;;;;;;;;4964034;28;107405;-65
2022/01/11 12:54:49;;;;;;;26.33;10.98;;;;;;;;;;4969935;28;106914;-68
2022/01/11 12:57:17;;;;;;;24.80;10.88;;;;;;;;;;4965652;28;106965;-67
2022/01/11 12:59:49;;;;;;;30.67;12.20;;;;;;;;;;4964224;28;106964;-65
2022/01/11 13:02:18;;;;;;;25.98;10.75;;;;;;;;;;4967493;28;106016;-65
2022/01/11 13:04:49;;;;;;;28.20;11.00;;;;;;;;;;4958939;28;107645;-65
2022/01/11 13:07:23;;;;;;;23.90;10.07;;;;;;;;;;4964490;28;106450;-65
2022/01/11 13:10:08;;;;;;;24.35;10.73;;;;;;;;;;4967046;28;105896;-66
2022/01/11 13:12:56;;;;;;;26.65;10.25;;;;;;;;;;4952478;28;109566;-66
2022/01/11 13:15:36;;;;;;;26.67;10.13;;;;;;;;;;4964878;28;107400;-66
2022/01/11 13:18:08;;;;;;;19.67;8.98;;;;;;;;;;4969071;28;106669;-66
2022/01/11 13:20:52;;;;;;;24.33;9.57;;;;;;;;;;4956796;28;105640;-67
2022/01/11 13:23:28;;;;;;;20.52;8.85;;;;;;;;;;4957820;28;105822;-66
2022/01/11 13:25:57;;;;;;;23.88;9.40;;;;;;;;;;4964237;28;107944;-67
2022/01/11 13:28:42;;;;;;;25.38;8.75;;;;;;;;;;4960881;28;107833;-68
2022/01/11 13:31:10;;;;;;;24.08;9.20;;;;;;;;;;4960270;28;105767;-67
2022/01/11 13:33:38;;;;;;;21.85;9.30;;;;;;;;;;4954762;28;107299;-67
2022/01/11 13:36:09;;;;;;;23.35;9.10;;;;;;;;;;4963423;28;106472;-67
2022/01/11 13:38:36;;;;;;;17.27;8.05;;;;;;;;;;4963641;28;106534;-67
2022/01/11 13:41:03;;;;;;;16.48;8.38;;;;;;;;;;4964956;28;106596;-66
2022/01/11 13:43:40;;;;;;;18.05;8.45;;;;;;;;;;4964877;28;106129;-67
2022/01/11 13:46:14;;;;;;;20.70;9.50;;;;;;;;;;4961096;28;109122;-66
2022/01/11 13:48:41;;;;;;;22.35;9.35;;;;;;;;;;4969596;28;105559;-66
2022/01/11 13:51:07;;;;;;;19.38;9.10;;;;;;;;;;4972444;28;106347;-67
2022/01/11 13:53:35;;;;;;;18.50;8.82;;;;;;;;;;4968581;28;107602;-66
2022/01/11 13:56:11;;;;;;;17.77;8.70;;;;;;;;;;4970729;28;105991;-65
2022/01/11 13:58:39;;;;;;;18.38;8.73;;;;;;;;;;4969479;28;108238;-66
2022/01/11 14:01:06;;;;;;;20.77;8.80;;;;;;;;;;4965960;28;107348;-67
2022/01/11 14:03:32;;;;;;;21.52;8.75;;;;;;;;;;4972842;28;105826;-66
2022/01/11 14:06:12;;;;;;;22.15;8.38;;;;;;;;;;4966563;28;107769;-66
2022/01/11 14:08:39;;;;;;;;;;;;;;;;;;4959880;28;107499;-66
2022/01/11 14:11:07;;;;;;;16.85;8.20;;;;;;;;;;4966011;28;135750;-66
2022/01/11 14:13:34;;;;;;;21.30;8.85;;;;;;;;;;4970638;28;107939;-66
2022/01/11 14:16:14;;;;;;;20.13;8.60;;;;;;;;;;4966576;28;106014;-65
2022/01/11 14:18:42;;;;;;;19.83;8.82;;;;;;;;;;4956170;28;105988;-66
2022/01/11 14:21:10;;;;;;;22.05;8.45;;;;;;;;;;4962285;28;111003;-66
2022/01/11 14:23:37;;;;;;;18.17;7.70;;;;;;;;;;4970109;28;106561;-66
2022/01/11 14:26:05;;;;;;;20.90;8.10;;;;;;;;;;4967780;28;106271;-66